createdAt,value
2018-12-29T00:00:40.166Z,8.38
2018-12-29T00:03:31.877Z,8.24
2018-12-29T00:06:22.055Z,8.27
2018-12-29T00:09:12.469Z,8.31
2018-12-29T00:12:03.539Z,8.33
2018-12-29T00:14:55.153Z,8.23
2018-12-29T00:17:45.887Z,8.22
2018-12-29T00:20:36.829Z,8.19
2018-12-29T00:23:27.618Z,8.25
2018-12-29T00:26:18.246Z,8.23
2018-12-29T00:29:08.692Z,8.23
2018-12-29T00:31:59.209Z,8.16
2018-12-29T00:34:49.583Z,8.18
2018-12-29T00:37:40.153Z,8.16
2018-12-29T00:40:30.683Z,8.17
2018-12-29T00:43:21.215Z,8.28
2018-12-29T00:46:11.813Z,8.26
2018-12-29T00:49:02.158Z,8.20
2018-12-29T00:51:53.095Z,8.19
2018-12-29T00:54:43.731Z,8.17
2018-12-29T00:57:34.179Z,8.18
2018-12-29T01:00:24.650Z,8.15
2018-12-29T01:03:15.220Z,8.19
2018-12-29T01:06:07.531Z,8.12
2018-12-29T01:08:58.043Z,8.04
2018-12-29T01:11:48.545Z,8.12
2018-12-29T01:14:38.898Z,8.19
2018-12-29T01:17:29.065Z,8.19
2018-12-29T01:20:19.646Z,8.14
2018-12-29T01:23:10.221Z,8.03
2018-12-29T01:26:03.757Z,7.92
2018-12-29T01:28:53.983Z,7.99
2018-12-29T01:31:44.563Z,7.95
2018-12-29T01:34:35.276Z,7.92
2018-12-29T01:37:25.916Z,7.79
2018-12-29T01:40:16.783Z,7.86
2018-12-29T01:43:07.202Z,7.84
2018-12-29T01:45:57.800Z,7.85
2018-12-29T01:48:48.155Z,7.83
2018-12-29T01:51:38.825Z,7.83
2018-12-29T01:54:29.391Z,7.74
2018-12-29T01:57:21.804Z,7.73
2018-12-29T02:00:12.115Z,7.80
2018-12-29T02:03:02.808Z,7.78
2018-12-29T02:05:53.015Z,7.88
2018-12-29T02:08:43.501Z,7.82
2018-12-29T02:11:34.413Z,7.85
2018-12-29T02:14:25.041Z,7.84
2018-12-29T02:17:15.926Z,7.81
2018-12-29T02:20:06.932Z,7.84
2018-12-29T02:22:57.578Z,7.86
2018-12-29T02:25:47.923Z,7.82
2018-12-29T02:28:38.948Z,7.83
2018-12-29T02:31:29.461Z,7.83
2018-12-29T02:34:20.988Z,7.82
2018-12-29T02:37:11.727Z,7.94
2018-12-29T02:40:02.150Z,7.86
2018-12-29T02:42:52.600Z,7.90
2018-12-29T02:45:42.785Z,7.94
2018-12-29T02:48:33.495Z,7.97
2018-12-29T02:51:24.075Z,7.94
2018-12-29T02:54:15.030Z,7.96
2018-12-29T02:57:05.553Z,7.97
2018-12-29T02:59:56.095Z,8.04
2018-12-29T03:02:46.783Z,8.05
2018-12-29T03:05:37.187Z,8.20
2018-12-29T03:08:27.904Z,8.10
2018-12-29T03:11:18.523Z,8.04
2018-12-29T03:14:09.134Z,8.04
2018-12-29T03:16:59.797Z,8.07
2018-12-29T03:19:50.417Z,8.06
2018-12-29T03:22:40.917Z,8.01
2018-12-29T03:25:31.669Z,8.21
2018-12-29T03:28:22.541Z,8.20
2018-12-29T03:31:13.181Z,8.14
2018-12-29T03:34:03.500Z,8.24
2018-12-29T03:36:54.160Z,8.14
2018-12-29T03:39:44.832Z,8.05
2018-12-29T03:42:35.155Z,8.11
2018-12-29T03:45:25.776Z,8.05
2018-12-29T03:48:16.433Z,8.11
2018-12-29T03:51:08.647Z,8.00
2018-12-29T03:53:59.106Z,8.08
2018-12-29T03:56:49.493Z,8.16
2018-12-29T03:59:40.047Z,8.26
2018-12-29T04:02:30.614Z,8.22
2018-12-29T04:05:21.232Z,8.34
2018-12-29T04:08:11.984Z,8.28
2018-12-29T04:11:04.298Z,8.29
2018-12-29T04:13:54.832Z,8.32
2018-12-29T04:16:45.678Z,8.27
2018-12-29T04:19:35.974Z,8.35
2018-12-29T04:22:26.204Z,8.38
2018-12-29T04:25:16.882Z,8.38
2018-12-29T04:28:07.528Z,8.31
2018-12-29T04:30:58.759Z,8.34
2018-12-29T04:33:49.138Z,8.34
2018-12-29T04:36:39.932Z,8.39
2018-12-29T04:39:30.408Z,8.37
2018-12-29T04:42:21.086Z,8.18
2018-12-29T04:45:11.948Z,8.14
2018-12-29T04:48:02.415Z,8.13
2018-12-29T04:50:53.222Z,8.07
2018-12-29T04:53:43.661Z,8.04
2018-12-29T04:56:34.390Z,8.12
2018-12-29T04:59:25.208Z,8.10
2018-12-29T05:02:15.838Z,8.07
2018-12-29T05:05:06.645Z,8.19
2018-12-29T05:07:56.949Z,7.98
2018-12-29T05:10:47.657Z,7.89
2018-12-29T05:13:38.232Z,7.89
2018-12-29T05:16:29.650Z,7.95
2018-12-29T05:19:20.387Z,8.08
2018-12-29T05:22:11.329Z,7.99
2018-12-29T05:25:02.057Z,8.02
2018-12-29T05:27:55.729Z,8.05
2018-12-29T05:30:46.407Z,8.06
2018-12-29T05:33:36.977Z,8.16
2018-12-29T05:36:27.399Z,8.27
2018-12-29T05:39:18.075Z,8.30
2018-12-29T05:42:08.774Z,8.36
2018-12-29T05:44:59.505Z,8.50
2018-12-29T05:47:50.036Z,8.73
2018-12-29T05:50:40.581Z,8.89
2018-12-29T05:53:31.160Z,8.90
2018-12-29T05:56:21.835Z,8.98
2018-12-29T05:59:12.225Z,8.96
2018-12-29T06:02:03.027Z,9.08
2018-12-29T06:04:53.379Z,9.01
2018-12-29T06:07:44.303Z,8.92
2018-12-29T06:10:35.080Z,8.92
2018-12-29T06:13:28.264Z,8.90
2018-12-29T06:16:18.817Z,8.94
2018-12-29T06:19:09.461Z,8.97
2018-12-29T06:22:00.198Z,9.05
2018-12-29T06:24:52.056Z,9.19
2018-12-29T06:27:42.756Z,9.44
2018-12-29T06:30:33.086Z,9.68
2018-12-29T06:33:23.785Z,10.05
2018-12-29T06:36:14.368Z,10.47
2018-12-29T06:39:05.653Z,10.90
2018-12-29T06:41:56.174Z,11.10
2018-12-29T06:44:46.914Z,11.65
2018-12-29T06:47:37.754Z,12.26
2018-12-29T06:50:28.144Z,12.98
2018-12-29T06:53:19.241Z,13.54
2018-12-29T06:56:09.985Z,14.24
2018-12-29T06:59:02.492Z,14.24
2018-12-29T07:01:53.294Z,15.30
2018-12-29T07:04:43.747Z,15.69
2018-12-29T07:07:34.238Z,15.83
2018-12-29T07:10:24.951Z,16.09
2018-12-29T07:13:15.522Z,15.68
2018-12-29T07:16:08.024Z,15.48
2018-12-29T07:18:58.362Z,15.63
2018-12-29T07:21:48.867Z,15.70
2018-12-29T07:24:39.593Z,15.56
2018-12-29T07:27:29.898Z,16.15
2018-12-29T07:30:20.634Z,16.21
2018-12-29T07:33:11.383Z,16.98
2018-12-29T07:36:03.752Z,17.25
2018-12-29T07:38:54.508Z,17.45
2018-12-29T07:41:45.275Z,17.25
2018-12-29T07:44:35.991Z,18.18
2018-12-29T07:47:26.579Z,18.08
2018-12-29T07:50:17.087Z,18.48
2018-12-29T07:53:07.659Z,18.76
2018-12-29T07:55:58.209Z,18.86
2018-12-29T07:58:48.790Z,18.87
2018-12-29T08:01:39.356Z,18.19
2018-12-29T08:04:29.689Z,18.51
2018-12-29T08:07:20.377Z,18.99
2018-12-29T08:10:10.726Z,18.53
2018-12-29T08:13:01.558Z,19.82
2018-12-29T08:15:51.901Z,20.36
2018-12-29T08:18:42.321Z,21.21
2018-12-29T08:21:32.941Z,20.52
2018-12-29T08:24:23.523Z,21.50
2018-12-29T08:27:14.030Z,22.57
2018-12-29T08:30:05.434Z,22.28
2018-12-29T08:32:56.400Z,22.53
2018-12-29T08:35:47.500Z,22.64
2018-12-29T08:38:38.710Z,22.69
2018-12-29T08:41:29.929Z,22.70
2018-12-29T08:44:20.509Z,22.07
2018-12-29T08:47:11.283Z,19.91
2018-12-29T08:50:01.911Z,19.63
2018-12-29T08:52:52.685Z,19.46
2018-12-29T08:55:42.984Z,19.39
2018-12-29T08:58:33.989Z,18.04
2018-12-29T09:01:24.826Z,17.64
2018-12-29T09:04:15.521Z,17.78
2018-12-29T09:07:06.328Z,17.09
2018-12-29T09:09:56.674Z,16.86
2018-12-29T09:12:47.202Z,16.84
2018-12-29T09:15:39.258Z,16.46
2018-12-29T09:18:30.144Z,16.26
2018-12-29T09:21:20.841Z,16.40
2018-12-29T09:24:11.470Z,16.32
2018-12-29T09:27:02.018Z,16.06
2018-12-29T09:29:52.188Z,15.50
2018-12-29T09:32:42.970Z,15.11
2018-12-29T09:35:33.640Z,14.82
2018-12-29T09:38:24.211Z,14.75
2018-12-29T09:41:17.732Z,14.38
2018-12-29T09:44:08.334Z,14.11
2018-12-29T09:46:59.115Z,14.11
2018-12-29T09:49:49.881Z,14.00
2018-12-29T09:52:41.546Z,13.94
2018-12-29T09:55:31.893Z,13.95
2018-12-29T09:58:22.364Z,13.78
2018-12-29T10:01:12.736Z,13.71
2018-12-29T10:04:03.215Z,13.67
2018-12-29T10:06:54.065Z,13.62
2018-12-29T10:09:44.603Z,13.80
2018-12-29T10:12:35.013Z,13.60
2018-12-29T10:15:25.495Z,13.51
2018-12-29T10:18:16.118Z,13.43
2018-12-29T10:21:06.975Z,13.50
2018-12-29T10:23:58.038Z,13.58
2018-12-29T10:26:48.589Z,13.67
2018-12-29T10:29:39.186Z,13.68
2018-12-29T10:32:29.506Z,13.64
2018-12-29T10:35:20.201Z,13.57
2018-12-29T10:38:10.792Z,13.28
2018-12-29T10:41:01.275Z,13.25
2018-12-29T10:43:51.921Z,13.15
2018-12-29T10:46:42.307Z,13.07
2018-12-29T10:49:32.701Z,13.09
2018-12-29T10:52:23.402Z,13.22
2018-12-29T10:55:14.424Z,13.23
2018-12-29T10:58:05.120Z,13.38
2018-12-29T11:00:55.729Z,13.30
2018-12-29T11:03:46.580Z,13.21
2018-12-29T11:06:37.188Z,13.13
2018-12-29T11:09:27.658Z,13.06
2018-12-29T11:12:18.371Z,13.05
2018-12-29T11:15:09.026Z,13.10
2018-12-29T11:17:59.429Z,13.15
2018-12-29T11:20:49.722Z,13.07
2018-12-29T11:23:39.982Z,13.13
2018-12-29T11:26:30.426Z,13.19
2018-12-29T11:29:21.388Z,13.09
2018-12-29T11:32:11.934Z,13.10
2018-12-29T11:35:02.516Z,13.10
2018-12-29T11:37:53.497Z,13.09
2018-12-29T11:40:44.150Z,13.10
2018-12-29T11:43:34.769Z,13.10
2018-12-29T11:46:25.391Z,13.13
2018-12-29T11:49:18.104Z,13.09
2018-12-29T11:52:08.388Z,13.14
2018-12-29T11:54:59.398Z,13.07
2018-12-29T11:57:49.894Z,13.08
2018-12-29T12:00:40.713Z,13.18
2018-12-29T12:03:31.425Z,13.15
2018-12-29T12:06:22.285Z,13.12
2018-12-29T12:09:12.471Z,13.18
2018-12-29T12:12:03.167Z,13.18
2018-12-29T12:14:53.671Z,13.16
2018-12-29T12:17:44.380Z,13.13
2018-12-29T12:20:34.747Z,13.15
2018-12-29T12:23:25.130Z,13.10
2018-12-29T12:26:16.665Z,13.04
2018-12-29T12:29:10.127Z,13.00
2018-12-29T12:32:00.711Z,13.05
2018-12-29T12:34:51.366Z,12.99
2018-12-29T12:37:41.834Z,12.98
2018-12-29T12:40:33.275Z,12.95
2018-12-29T12:43:23.926Z,12.98
2018-12-29T12:46:14.909Z,12.97
2018-12-29T12:49:05.489Z,13.01
2018-12-29T12:51:56.114Z,12.95
2018-12-29T12:54:46.869Z,12.99
2018-12-29T12:57:40.673Z,12.96
2018-12-29T13:00:31.527Z,12.98
2018-12-29T13:03:22.573Z,12.94
2018-12-29T13:06:13.493Z,12.88
2018-12-29T13:09:07.866Z,12.86
2018-12-29T13:11:58.328Z,12.84
2018-12-29T13:14:48.761Z,12.83
2018-12-29T13:17:39.786Z,12.83
2018-12-29T13:20:30.505Z,12.81
2018-12-29T13:23:21.066Z,12.80
2018-12-29T13:26:11.968Z,12.81
2018-12-29T13:29:02.234Z,12.76
2018-12-29T13:31:52.666Z,12.73
2018-12-29T13:34:43.259Z,12.76
2018-12-29T13:37:33.408Z,12.70
2018-12-29T13:40:24.036Z,12.69
2018-12-29T13:43:14.608Z,12.67
2018-12-29T13:46:06.943Z,12.64
2018-12-29T13:48:57.662Z,12.65
2018-12-29T13:51:48.635Z,12.64
2018-12-29T13:54:39.435Z,12.61
2018-12-29T13:57:30.109Z,12.45
2018-12-29T14:00:20.589Z,12.57
2018-12-29T14:03:11.323Z,12.57
2018-12-29T14:06:03.944Z,12.54
2018-12-29T14:08:54.472Z,12.54
2018-12-29T14:11:45.169Z,12.52
2018-12-29T14:14:35.856Z,12.54
2018-12-29T14:17:26.614Z,12.52
2018-12-29T14:20:17.312Z,12.48
2018-12-29T14:23:08.219Z,12.46
2018-12-29T14:25:59.118Z,12.45
2018-12-29T14:28:49.572Z,12.28
2018-12-29T14:31:40.030Z,12.41
2018-12-29T14:34:30.734Z,12.36
2018-12-29T14:37:21.318Z,12.32
2018-12-29T14:40:12.440Z,12.23
2018-12-29T14:43:02.934Z,12.25
2018-12-29T14:45:53.425Z,12.12
2018-12-29T14:48:43.939Z,12.12
2018-12-29T14:51:34.507Z,12.07
2018-12-29T14:54:25.114Z,12.06
2018-12-29T14:57:15.916Z,12.07
2018-12-29T15:00:06.585Z,12.03
2018-12-29T15:02:58.119Z,12.00
2018-12-29T15:05:48.461Z,11.96
2018-12-29T15:08:39.249Z,11.96
2018-12-29T15:11:29.761Z,11.98
2018-12-29T15:14:20.502Z,11.98
2018-12-29T15:17:11.652Z,11.96
2018-12-29T15:20:02.452Z,11.91
2018-12-29T15:22:52.830Z,11.87
2018-12-29T15:25:43.293Z,11.90
2018-12-29T15:28:33.662Z,11.88
2018-12-29T15:31:24.362Z,11.86
2018-12-29T15:34:14.729Z,11.84
2018-12-29T15:37:05.261Z,11.80
2018-12-29T15:39:55.954Z,11.74
2018-12-29T15:42:49.411Z,11.75
2018-12-29T15:45:39.618Z,11.73
2018-12-29T15:48:29.960Z,11.71
2018-12-29T15:51:20.476Z,11.69
2018-12-29T15:54:11.057Z,11.66
2018-12-29T15:57:01.943Z,11.61
2018-12-29T15:59:53.252Z,11.62
2018-12-29T16:02:43.985Z,11.55
2018-12-29T16:05:34.529Z,11.52
2018-12-29T16:08:24.952Z,11.46
2018-12-29T16:11:15.636Z,11.44
2018-12-29T16:14:06.313Z,11.41
2018-12-29T16:16:56.856Z,11.31
2018-12-29T16:19:47.554Z,11.30
2018-12-29T16:22:37.768Z,11.32
2018-12-29T16:25:28.322Z,11.28
2018-12-29T16:28:18.708Z,11.30
2018-12-29T16:31:09.306Z,11.29
2018-12-29T16:34:00.713Z,11.22
2018-12-29T16:36:51.935Z,11.18
2018-12-29T16:39:42.894Z,11.18
2018-12-29T16:42:33.227Z,11.18
2018-12-29T16:45:23.633Z,11.15
2018-12-29T16:48:14.207Z,11.10
2018-12-29T16:51:04.901Z,11.05
2018-12-29T16:53:55.364Z,11.04
2018-12-29T16:56:46.041Z,10.95
2018-12-29T16:59:36.756Z,10.91
2018-12-29T17:02:27.364Z,10.87
2018-12-29T17:05:17.927Z,10.82
2018-12-29T17:08:08.237Z,10.78
2018-12-29T17:10:58.738Z,10.74
2018-12-29T17:13:49.544Z,10.69
2018-12-29T17:16:39.963Z,10.68
2018-12-29T17:19:30.659Z,10.70
2018-12-29T17:22:21.056Z,10.63
2018-12-29T17:25:11.761Z,10.63
2018-12-29T17:28:02.410Z,10.59
2018-12-29T17:30:52.893Z,10.59
2018-12-29T17:33:43.231Z,10.56
2018-12-29T17:36:41.713Z,10.60
2018-12-29T17:39:26.233Z,10.52
2018-12-29T17:42:16.711Z,10.52
2018-12-29T17:45:07.633Z,10.46
2018-12-29T17:47:58.211Z,10.38
2018-12-29T17:50:49.228Z,10.42
2018-12-29T17:53:47.752Z,10.39
2018-12-29T17:56:32.454Z,10.41
2018-12-29T17:59:24.363Z,10.28
2018-12-29T18:02:15.129Z,10.38
2018-12-29T18:05:05.779Z,10.40
2018-12-29T18:07:56.412Z,10.27
2018-12-29T18:10:47.321Z,10.30
2018-12-29T18:13:40.212Z,10.18
2018-12-29T18:16:30.735Z,10.23
2018-12-29T18:19:20.837Z,10.12
2018-12-29T18:22:11.440Z,10.11
2018-12-29T18:25:01.961Z,10.13
2018-12-29T18:27:52.506Z,9.99
2018-12-29T18:30:42.932Z,10.03
2018-12-29T18:33:37.329Z,10.09
2018-12-29T18:36:26.409Z,10.00
2018-12-29T18:39:16.724Z,9.93
2018-12-29T18:42:07.695Z,9.98
2018-12-29T18:44:58.274Z,9.96
2018-12-29T18:47:48.869Z,9.86
2018-12-29T18:50:39.575Z,9.79
2018-12-29T18:53:30.133Z,9.77
2018-12-29T18:56:20.867Z,9.76
2018-12-29T18:59:11.568Z,9.67
2018-12-29T19:02:01.989Z,9.73
2018-12-29T19:04:52.591Z,9.76
2018-12-29T19:07:43.243Z,9.70
2018-12-29T19:10:34.030Z,9.74
2018-12-29T19:13:24.955Z,9.65
2018-12-29T19:16:16.006Z,9.72
2018-12-29T19:19:06.816Z,9.75
2018-12-29T19:21:57.747Z,9.69
2018-12-29T19:24:48.361Z,9.66
2018-12-29T19:27:38.796Z,9.63
2018-12-29T19:30:29.428Z,9.56
2018-12-29T19:33:22.105Z,9.58
2018-12-29T19:36:12.987Z,9.54
2018-12-29T19:39:04.640Z,9.53
2018-12-29T19:41:55.808Z,9.56
2018-12-29T19:44:47.384Z,9.45
2018-12-29T19:47:41.098Z,9.52
2018-12-29T19:50:31.703Z,9.41
2018-12-29T19:53:22.218Z,9.36
2018-12-29T19:56:13.975Z,9.27
2018-12-29T19:59:04.854Z,9.22
2018-12-29T20:01:55.278Z,9.24
2018-12-29T20:04:45.829Z,9.30
2018-12-29T20:07:36.585Z,9.23
2018-12-29T20:10:28.154Z,9.17
2018-12-29T20:13:19.739Z,9.19
2018-12-29T20:16:10.547Z,9.25
2018-12-29T20:19:00.840Z,9.18
2018-12-29T20:21:51.857Z,9.13
2018-12-29T20:24:42.825Z,9.03
2018-12-29T20:27:33.673Z,9.03
2018-12-29T20:30:24.377Z,8.99
2018-12-29T20:33:14.523Z,9.07
2018-12-29T20:36:06.572Z,8.92
2018-12-29T20:38:59.998Z,8.90
2018-12-29T20:41:50.422Z,8.86
2018-12-29T20:44:41.791Z,8.77
2018-12-29T20:47:32.278Z,8.84
2018-12-29T20:50:23.082Z,8.84
2018-12-29T20:53:14.845Z,8.79
2018-12-29T20:56:05.208Z,8.80
2018-12-29T20:58:55.652Z,8.75
2018-12-29T21:01:46.201Z,8.83
2018-12-29T21:04:36.794Z,8.71
2018-12-29T21:07:27.346Z,8.81
2018-12-29T21:10:17.980Z,8.80
2018-12-29T21:13:08.874Z,8.75
2018-12-29T21:16:02.239Z,8.72
2018-12-29T21:18:52.875Z,8.72
2018-12-29T21:21:43.794Z,8.76
2018-12-29T21:24:34.245Z,8.69
2018-12-29T21:27:24.748Z,8.75
2018-12-29T21:30:15.041Z,8.76
2018-12-29T21:33:05.417Z,8.66
2018-12-29T21:35:55.661Z,8.67
2018-12-29T21:38:46.288Z,8.67
2018-12-29T21:41:36.981Z,8.64
2018-12-29T21:44:27.359Z,8.60
2018-12-29T21:47:18.187Z,8.55
2018-12-29T21:50:09.169Z,8.54
2018-12-29T21:53:00.342Z,8.53
2018-12-29T21:55:51.215Z,8.51
2018-12-29T21:58:42.073Z,8.56
2018-12-29T22:01:32.494Z,8.55
2018-12-29T22:04:22.731Z,8.47
2018-12-29T22:07:13.345Z,8.46
2018-12-29T22:10:04.027Z,8.54
2018-12-29T22:12:54.475Z,8.55
2018-12-29T22:15:45.055Z,8.51
2018-12-29T22:18:35.771Z,8.57
2018-12-29T22:21:26.286Z,8.53
2018-12-29T22:24:16.707Z,8.46
2018-12-29T22:27:07.414Z,8.44
2018-12-29T22:29:58.157Z,8.40
2018-12-29T22:32:49.085Z,8.41
2018-12-29T22:35:39.836Z,8.47
2018-12-29T22:38:30.520Z,8.40
2018-12-29T22:41:20.969Z,8.42
2018-12-29T22:44:11.405Z,8.47
2018-12-29T22:47:02.078Z,8.51
2018-12-29T22:49:52.726Z,8.43
2018-12-29T22:52:43.128Z,8.43
2018-12-29T22:55:33.889Z,8.37
2018-12-29T22:58:24.616Z,8.35
2018-12-29T23:01:15.335Z,8.39
2018-12-29T23:04:05.950Z,8.47
2018-12-29T23:06:56.591Z,8.51
2018-12-29T23:09:46.947Z,8.55
2018-12-29T23:12:37.370Z,8.52
2018-12-29T23:15:28.094Z,8.52
2018-12-29T23:18:18.675Z,8.55
2018-12-29T23:21:10.842Z,8.68
2018-12-29T23:24:01.423Z,8.67
2018-12-29T23:26:52.004Z,8.60
2018-12-29T23:29:42.801Z,8.57
2018-12-29T23:32:33.379Z,8.47
2018-12-29T23:35:24.147Z,8.56
2018-12-29T23:38:14.839Z,8.60
2018-12-29T23:41:06.270Z,8.63
2018-12-29T23:43:57.352Z,8.64
2018-12-29T23:46:48.175Z,8.57
2018-12-29T23:49:38.898Z,8.54
2018-12-29T23:52:29.866Z,8.49
2018-12-29T23:55:20.510Z,8.42
2018-12-29T23:58:11.149Z,8.52
